createdAt,value
2022-09-11T00:00:11.001Z,75.37
2022-09-11T00:01:14.797Z,76.05
2022-09-11T00:02:22.011Z,76.21
2022-09-11T00:03:24.974Z,76.01
2022-09-11T00:04:27.902Z,75.62
2022-09-11T00:05:31.379Z,75.98
2022-09-11T00:06:34.523Z,75.49
2022-09-11T00:07:37.567Z,75.60
2022-09-11T00:08:42.133Z,75.53
2022-09-11T00:09:45.143Z,75.48
2022-09-11T00:10:48.880Z,75.63
2022-09-11T00:11:51.704Z,76.01
2022-09-11T00:12:54.587Z,76.21
2022-09-11T00:13:57.571Z,76.54
2022-09-11T00:15:00.594Z,76.72
2022-09-11T00:16:08.628Z,76.43
2022-09-11T00:17:12.030Z,76.10
2022-09-11T00:18:17.867Z,76.42
2022-09-11T00:19:21.954Z,76.70
2022-09-11T00:20:24.865Z,76.45
2022-09-11T00:21:29.049Z,76.84
2022-09-11T00:22:32.173Z,76.81
2022-09-11T00:23:35.917Z,76.62
2022-09-11T00:24:38.854Z,76.56
2022-09-11T00:25:41.814Z,76.91
2022-09-11T00:26:48.065Z,76.88
2022-09-11T00:27:52.065Z,76.66
2022-09-11T00:28:58.803Z,76.65
2022-09-11T00:30:01.893Z,76.92
2022-09-11T00:31:12.783Z,77.16
2022-09-11T00:32:15.927Z,77.77
2022-09-11T00:33:18.614Z,77.46
2022-09-11T00:34:21.496Z,77.49
2022-09-11T00:35:27.836Z,77.75
2022-09-11T00:36:31.898Z,78.21
2022-09-11T00:37:34.792Z,77.66
2022-09-11T00:38:38.109Z,77.63
2022-09-11T00:39:41.044Z,77.67
2022-09-11T00:40:48.055Z,77.20
2022-09-11T00:41:50.835Z,76.85
2022-09-11T00:42:54.472Z,76.36
2022-09-11T00:44:07.964Z,76.65
2022-09-11T00:45:27.347Z,76.52
2022-09-11T00:46:54.386Z,76.51
2022-09-11T00:47:59.911Z,77.41
2022-09-11T00:49:10.864Z,77.30
2022-09-11T00:50:19.521Z,77.10
2022-09-11T00:51:28.540Z,77.02
2022-09-11T00:52:36.344Z,77.46
2022-09-11T00:53:39.391Z,77.14
2022-09-11T00:54:57.818Z,77.19
2022-09-11T00:56:04.036Z,77.48
2022-09-11T00:57:09.730Z,77.13
2022-09-11T00:58:18.069Z,77.37
2022-09-11T00:59:25.882Z,77.46
2022-09-11T01:00:28.906Z,77.54
2022-09-11T01:01:31.939Z,77.68
2022-09-11T01:02:38.711Z,77.97
2022-09-11T01:03:42.661Z,78.74
2022-09-11T01:04:45.669Z,78.20
2022-09-11T01:05:49.237Z,77.90
2022-09-11T01:06:56.835Z,77.74
2022-09-11T01:07:59.700Z,77.54
2022-09-11T01:09:02.494Z,77.68
2022-09-11T01:10:07.349Z,78.13
2022-09-11T01:11:25.881Z,77.41
2022-09-11T01:12:53.390Z,77.90
2022-09-11T01:14:09.957Z,78.21
2022-09-11T01:15:44.992Z,78.33
2022-09-11T01:16:53.524Z,77.70
2022-09-11T01:18:32.523Z,77.81
2022-09-11T01:20:05.764Z,78.02
2022-09-11T01:21:35.370Z,79.08
2022-09-11T01:23:15.814Z,78.91
2022-09-11T01:24:39.312Z,78.43
2022-09-11T01:25:53.163Z,78.55
2022-09-11T01:27:31.769Z,77.90
2022-09-11T01:28:52.024Z,77.99
2022-09-11T01:30:07.214Z,77.95
2022-09-11T01:31:16.418Z,78.21
2022-09-11T01:32:39.251Z,78.75
2022-09-11T01:33:51.164Z,79.02
2022-09-11T01:35:02.696Z,78.57
2022-09-11T01:36:10.929Z,78.59
2022-09-11T01:37:35.563Z,78.71
2022-09-11T01:38:43.831Z,78.35
2022-09-11T01:39:59.505Z,78.44
2022-09-11T01:41:15.735Z,79.01
2022-09-11T01:42:23.390Z,79.36
2022-09-11T01:43:30.860Z,79.52
2022-09-11T01:44:38.815Z,80.34
2022-09-11T01:45:45.479Z,80.42
2022-09-11T01:46:51.063Z,80.64
2022-09-11T01:48:00.045Z,80.57
2022-09-11T01:49:41.181Z,80.73
2022-09-11T01:50:48.001Z,80.69
2022-09-11T01:51:57.210Z,81.38
2022-09-11T01:53:03.795Z,81.25
2022-09-11T01:54:13.625Z,81.70
2022-09-11T01:55:25.398Z,81.77
2022-09-11T01:56:36.424Z,81.32
2022-09-11T01:58:06.575Z,80.68
2022-09-11T01:59:14.790Z,80.55
2022-09-11T02:00:18.435Z,81.29
2022-09-11T02:01:26.089Z,81.35
2022-09-11T02:02:35.905Z,80.85
2022-09-11T02:03:44.628Z,80.91
2022-09-11T02:05:05.925Z,80.75
2022-09-11T02:06:14.765Z,80.71
2022-09-11T02:07:25.474Z,80.89
2022-09-11T02:08:37.232Z,81.77
2022-09-11T02:09:50.666Z,81.27
2022-09-11T02:10:59.358Z,80.41
2022-09-11T02:12:07.801Z,80.64
2022-09-11T02:13:19.564Z,80.59
2022-09-11T02:14:39.901Z,80.25
2022-09-11T02:15:47.477Z,80.41
2022-09-11T02:17:06.303Z,80.02
2022-09-11T02:18:20.444Z,80.32
2022-09-11T02:19:30.062Z,80.29
2022-09-11T02:20:34.601Z,79.75
2022-09-11T02:21:37.609Z,80.07
2022-09-11T02:22:40.730Z,79.54
2022-09-11T02:23:43.657Z,80.37
2022-09-11T02:24:50.877Z,80.16
2022-09-11T02:25:53.761Z,80.14
2022-09-11T02:27:06.727Z,79.86
2022-09-11T02:28:09.929Z,80.69
2022-09-11T02:29:14.052Z,81.06
2022-09-11T02:30:17.000Z,80.91
2022-09-11T02:31:21.048Z,81.59
2022-09-11T02:32:26.968Z,80.84
2022-09-11T02:33:37.937Z,80.69
2022-09-11T02:34:43.445Z,80.21
2022-09-11T02:35:52.749Z,79.87
2022-09-11T02:37:11.290Z,80.16
2022-09-11T02:38:30.207Z,79.65
2022-09-11T02:39:38.477Z,80.28
2022-09-11T02:41:02.016Z,80.97
2022-09-11T02:42:40.945Z,81.17
2022-09-11T02:44:02.290Z,81.03
2022-09-11T02:45:09.987Z,80.92
2022-09-11T02:46:41.885Z,81.00
2022-09-11T02:48:06.890Z,81.58
2022-09-11T02:49:40.123Z,81.62
2022-09-11T02:51:15.476Z,81.53
2022-09-11T02:52:48.237Z,81.75
2022-09-11T02:54:23.377Z,81.21
2022-09-11T02:55:36.138Z,80.68
2022-09-11T02:57:10.547Z,80.80
2022-09-11T02:58:23.424Z,80.95
2022-09-11T02:59:34.296Z,80.41
2022-09-11T03:00:37.940Z,80.69
2022-09-11T03:01:52.241Z,80.99
2022-09-11T03:02:55.143Z,81.07
2022-09-11T03:03:57.956Z,80.86
2022-09-11T03:05:00.802Z,80.71
2022-09-11T03:06:03.807Z,80.35
2022-09-11T03:07:07.111Z,80.15
2022-09-11T03:08:11.861Z,80.08
2022-09-11T03:09:15.140Z,79.66
2022-09-11T03:10:18.022Z,79.84
2022-09-11T03:11:20.920Z,80.25
2022-09-11T03:12:23.755Z,80.42
2022-09-11T03:13:26.655Z,80.80
2022-09-11T03:14:29.526Z,80.72
2022-09-11T03:15:32.340Z,81.62
2022-09-11T03:16:37.045Z,81.27
2022-09-11T03:17:40.537Z,80.62
2022-09-11T03:18:43.367Z,81.21
2022-09-11T03:19:46.547Z,81.20
2022-09-11T03:20:50.103Z,80.76
2022-09-11T03:21:53.567Z,80.44
2022-09-11T03:22:56.406Z,80.41
2022-09-11T03:23:59.319Z,80.38
2022-09-11T03:25:02.145Z,80.75
2022-09-11T03:26:05.148Z,80.13
2022-09-11T03:27:08.137Z,80.37
2022-09-11T03:28:11.407Z,80.23
2022-09-11T03:29:14.624Z,79.62
2022-09-11T03:30:17.750Z,79.91
2022-09-11T03:31:21.030Z,79.89
2022-09-11T03:32:23.933Z,80.34
2022-09-11T03:33:28.127Z,80.79
2022-09-11T03:34:31.986Z,80.64
2022-09-11T03:35:34.920Z,80.72
2022-09-11T03:36:37.977Z,80.73
2022-09-11T03:37:40.775Z,80.15
2022-09-11T03:38:45.986Z,79.98
2022-09-11T03:39:49.194Z,80.09
2022-09-11T03:40:52.068Z,80.51
2022-09-11T03:41:54.887Z,80.32
2022-09-11T03:42:57.716Z,80.57
2022-09-11T03:44:00.561Z,80.68
2022-09-11T03:45:04.352Z,80.53
2022-09-11T03:46:07.331Z,81.31
2022-09-11T03:47:10.268Z,81.46
2022-09-11T03:48:13.141Z,81.46
2022-09-11T03:49:16.239Z,81.66
2022-09-11T03:50:19.088Z,81.98
2022-09-11T03:51:22.278Z,81.64
2022-09-11T03:52:25.284Z,81.15
2022-09-11T03:53:28.264Z,81.13
2022-09-11T03:54:32.270Z,80.73
2022-09-11T03:55:35.285Z,80.50
2022-09-11T03:56:38.341Z,80.79
2022-09-11T03:57:41.248Z,80.90
2022-09-11T03:58:44.345Z,81.16
2022-09-11T03:59:47.367Z,81.44
2022-09-11T04:00:50.290Z,81.45
2022-09-11T04:01:53.208Z,81.23
2022-09-11T04:02:56.562Z,81.64
2022-09-11T04:03:59.393Z,82.05
2022-09-11T04:05:04.046Z,82.04
2022-09-11T04:06:07.866Z,82.22
2022-09-11T04:07:10.840Z,81.94
2022-09-11T04:08:14.288Z,81.93
2022-09-11T04:09:17.964Z,82.61
2022-09-11T04:10:21.395Z,82.66
2022-09-11T04:11:24.331Z,83.00
2022-09-11T04:12:27.157Z,82.66
2022-09-11T04:13:31.728Z,83.47
2022-09-11T04:14:34.666Z,83.19
2022-09-11T04:15:37.832Z,82.69
2022-09-11T04:16:40.981Z,83.20
2022-09-11T04:17:43.848Z,83.65
2022-09-11T04:18:47.675Z,83.45
2022-09-11T04:19:50.550Z,83.35
2022-09-11T04:20:53.430Z,83.62
2022-09-11T04:21:56.320Z,82.97
2022-09-11T04:22:59.322Z,83.01
2022-09-11T04:24:02.605Z,83.03
2022-09-11T04:25:06.621Z,82.75
2022-09-11T04:26:15.977Z,82.72
2022-09-11T04:27:19.274Z,83.01
2022-09-11T04:28:22.743Z,83.65
2022-09-11T04:29:26.614Z,83.82
2022-09-11T04:30:29.697Z,83.61
2022-09-11T04:31:36.200Z,83.54
2022-09-11T04:32:39.057Z,83.44
2022-09-11T04:33:42.301Z,83.52
2022-09-11T04:34:45.405Z,82.87
2022-09-11T04:35:48.222Z,83.01
2022-09-11T04:36:51.095Z,83.07
2022-09-11T04:37:53.805Z,83.21
2022-09-11T04:38:58.604Z,83.26
2022-09-11T04:40:01.790Z,83.53
2022-09-11T04:41:06.606Z,83.60
2022-09-11T04:42:10.814Z,83.37
2022-09-11T04:43:13.664Z,84.51
2022-09-11T04:44:16.574Z,83.67
2022-09-11T04:45:19.334Z,83.90
2022-09-11T04:46:22.403Z,84.20
2022-09-11T04:47:25.195Z,84.16
2022-09-11T04:48:28.310Z,84.01
2022-09-11T04:49:31.123Z,84.06
2022-09-11T04:50:33.995Z,84.81
2022-09-11T04:51:38.538Z,83.75
2022-09-11T04:52:41.311Z,84.13
2022-09-11T04:53:44.085Z,84.34
2022-09-11T04:54:48.678Z,83.90
2022-09-11T04:55:51.544Z,83.81
2022-09-11T04:56:54.995Z,83.27
2022-09-11T04:57:57.814Z,83.21
2022-09-11T04:59:03.584Z,83.83
2022-09-11T05:00:07.268Z,84.17
2022-09-11T05:01:14.027Z,83.76
2022-09-11T05:02:16.921Z,83.14
2022-09-11T05:03:21.231Z,82.19
2022-09-11T05:04:26.160Z,82.46
2022-09-11T05:05:29.444Z,82.69
2022-09-11T05:06:33.028Z,83.01
2022-09-11T05:07:36.334Z,82.32
2022-09-11T05:08:39.226Z,81.55
2022-09-11T05:09:42.115Z,81.93
2022-09-11T05:10:45.529Z,81.83
2022-09-11T05:11:48.807Z,81.32
2022-09-11T05:12:51.728Z,81.01
2022-09-11T05:13:54.563Z,81.33
2022-09-11T05:14:57.596Z,81.71
2022-09-11T05:16:09.706Z,82.17
2022-09-11T05:17:13.703Z,82.14
2022-09-11T05:18:16.878Z,81.29
2022-09-11T05:19:19.685Z,81.02
2022-09-11T05:20:22.594Z,81.03
2022-09-11T05:21:27.272Z,80.95
2022-09-11T05:22:30.354Z,80.82
2022-09-11T05:23:34.055Z,81.79
2022-09-11T05:24:36.900Z,82.09
2022-09-11T05:25:39.863Z,81.43
2022-09-11T05:26:43.203Z,81.04
2022-09-11T05:27:46.062Z,81.24
2022-09-11T05:28:53.753Z,81.29
2022-09-11T05:29:56.991Z,81.83
2022-09-11T05:31:00.483Z,82.03
2022-09-11T05:32:06.988Z,83.42
2022-09-11T05:33:09.756Z,82.35
2022-09-11T05:34:12.576Z,81.48
2022-09-11T05:35:15.352Z,81.54
2022-09-11T05:36:18.240Z,81.31
2022-09-11T05:37:21.380Z,81.42
2022-09-11T05:38:24.209Z,82.46
2022-09-11T05:39:27.172Z,82.28
2022-09-11T05:40:30.063Z,82.28
2022-09-11T05:41:33.042Z,81.10
2022-09-11T05:42:35.810Z,80.31
2022-09-11T05:43:40.386Z,81.04
2022-09-11T05:44:43.864Z,81.31
2022-09-11T05:45:56.906Z,81.94
2022-09-11T05:46:59.900Z,81.95
2022-09-11T05:48:03.727Z,80.89
2022-09-11T05:49:06.601Z,80.51
2022-09-11T05:50:09.672Z,80.14
2022-09-11T05:51:19.437Z,80.34
2022-09-11T05:52:22.399Z,80.06
2022-09-11T05:53:25.307Z,79.21
2022-09-11T05:54:28.753Z,80.32
2022-09-11T05:55:39.030Z,79.84
2022-09-11T05:56:41.893Z,80.09
2022-09-11T05:57:44.680Z,80.11
2022-09-11T05:58:49.123Z,79.05
2022-09-11T05:59:52.662Z,79.10
2022-09-11T06:01:04.268Z,78.84
2022-09-11T06:02:07.334Z,78.12
2022-09-11T06:03:14.878Z,78.14
2022-09-11T06:04:18.901Z,78.21
2022-09-11T06:05:22.227Z,78.23
2022-09-11T06:06:25.994Z,78.11
2022-09-11T06:07:28.713Z,76.77
2022-09-11T06:08:33.373Z,76.51
2022-09-11T06:09:36.115Z,75.17
2022-09-11T06:10:48.172Z,75.43
2022-09-11T06:11:50.968Z,75.97
2022-09-11T06:12:53.899Z,76.24
2022-09-11T06:13:56.972Z,75.59
2022-09-11T06:14:59.784Z,76.12
2022-09-11T06:16:05.930Z,75.54
2022-09-11T06:17:08.949Z,75.58
2022-09-11T06:18:11.758Z,75.08
2022-09-11T06:19:14.631Z,76.26
2022-09-11T06:20:17.594Z,76.38
2022-09-11T06:21:25.157Z,77.04
2022-09-11T06:22:30.118Z,75.77
2022-09-11T06:23:34.746Z,75.57
2022-09-11T06:24:37.582Z,74.83
2022-09-11T06:25:40.334Z,74.75
2022-09-11T06:26:46.731Z,73.93
2022-09-11T06:27:54.048Z,73.23
2022-09-11T06:28:57.417Z,73.10
2022-09-11T06:30:00.577Z,72.36
2022-09-11T06:31:09.902Z,72.42
2022-09-11T06:32:12.679Z,72.98
2022-09-11T06:33:15.488Z,71.63
2022-09-11T06:34:20.132Z,72.29
2022-09-11T06:35:26.662Z,73.00
2022-09-11T06:36:32.826Z,73.33
2022-09-11T06:37:36.070Z,73.06
2022-09-11T06:38:40.004Z,71.91
2022-09-11T06:39:42.912Z,72.34
2022-09-11T06:40:45.826Z,72.42
2022-09-11T06:41:48.736Z,71.29
2022-09-11T06:42:52.262Z,71.19
2022-09-11T06:43:55.342Z,71.02
2022-09-11T06:44:58.791Z,70.23
2022-09-11T06:46:10.503Z,69.15
2022-09-11T06:47:13.821Z,69.37
2022-09-11T06:48:17.942Z,68.59
2022-09-11T06:50:28.622Z,70.91
2022-09-11T06:51:31.385Z,71.04
2022-09-11T06:52:35.571Z,70.56
2022-09-11T06:53:40.457Z,71.01
2022-09-11T06:54:43.245Z,70.83
2022-09-11T06:55:45.986Z,71.04
2022-09-11T06:56:48.874Z,69.62
2022-09-11T06:57:51.758Z,69.64
2022-09-11T06:58:55.305Z,70.03
2022-09-11T06:59:58.271Z,69.88
2022-09-11T07:01:05.052Z,70.14
2022-09-11T07:02:09.740Z,71.26
2022-09-11T07:03:12.838Z,71.00
2022-09-11T07:04:15.815Z,70.92
2022-09-11T07:05:19.318Z,70.29
2022-09-11T07:06:25.221Z,70.74
2022-09-11T07:07:28.142Z,71.50
2022-09-11T07:08:32.738Z,72.01
2022-09-11T07:09:35.613Z,72.07
2022-09-11T07:10:38.584Z,71.35
2022-09-11T07:11:45.064Z,70.68
2022-09-11T07:12:48.219Z,69.71
2022-09-11T07:13:51.086Z,69.72
2022-09-11T07:14:53.961Z,69.69
2022-09-11T07:16:03.915Z,70.29
2022-09-11T07:17:07.589Z,70.53
2022-09-11T07:18:10.553Z,68.88
2022-09-11T07:19:13.786Z,70.40
2022-09-11T07:20:18.013Z,70.89
2022-09-11T07:21:23.585Z,70.29
2022-09-11T07:22:26.591Z,69.78
2022-09-11T07:23:29.343Z,68.17
2022-09-11T07:24:33.406Z,67.73
2022-09-11T07:25:38.809Z,67.69
2022-09-11T07:26:41.664Z,66.94
2022-09-11T07:27:44.444Z,66.44
2022-09-11T07:28:51.851Z,66.12
2022-09-11T07:29:54.745Z,66.30
2022-09-11T07:31:04.991Z,65.69
2022-09-11T07:32:08.002Z,64.27
2022-09-11T07:33:10.779Z,63.84
2022-09-11T07:34:13.613Z,63.75
2022-09-11T07:35:22.300Z,64.57
2022-09-11T07:36:27.999Z,64.04
2022-09-11T07:37:31.058Z,64.25
2022-09-11T07:38:33.943Z,64.17
2022-09-11T07:39:36.954Z,63.58
2022-09-11T07:40:39.727Z,63.36
2022-09-11T07:41:42.609Z,62.24
2022-09-11T07:42:45.514Z,61.62
2022-09-11T07:43:53.343Z,61.60
2022-09-11T07:44:56.163Z,61.55
2022-09-11T07:45:59.013Z,61.62
2022-09-11T07:47:02.279Z,61.07
2022-09-11T07:48:07.040Z,60.79
2022-09-11T07:49:10.402Z,59.79
2022-09-11T07:50:13.298Z,58.54
2022-09-11T07:51:19.236Z,58.87
2022-09-11T07:52:22.069Z,59.29
2022-09-11T07:53:25.973Z,60.38
2022-09-11T07:54:29.297Z,59.87
2022-09-11T07:55:34.901Z,60.54
2022-09-11T07:56:37.799Z,60.91
2022-09-11T07:57:40.797Z,60.98
2022-09-11T07:58:44.071Z,61.46
2022-09-11T07:59:46.954Z,62.87
2022-09-11T08:00:50.031Z,62.26
2022-09-11T08:01:56.021Z,64.43
2022-09-11T08:02:58.912Z,64.77
2022-09-11T08:04:04.912Z,65.85
2022-09-11T08:05:08.123Z,66.14
2022-09-11T08:06:18.946Z,65.74
2022-09-11T08:07:25.785Z,65.96
2022-09-11T08:08:30.002Z,66.25
2022-09-11T08:09:32.871Z,66.69
2022-09-11T08:10:41.092Z,66.81
2022-09-11T08:11:48.657Z,65.90
2022-09-11T08:12:59.211Z,65.69
2022-09-11T08:14:02.414Z,64.53
2022-09-11T08:15:05.463Z,65.26
2022-09-11T08:16:08.950Z,65.15
2022-09-11T08:17:11.907Z,65.53
2022-09-11T08:18:15.424Z,64.68
2022-09-11T08:19:20.682Z,64.68
2022-09-11T08:20:23.437Z,64.82
2022-09-11T08:21:29.337Z,64.98
2022-09-11T08:22:32.837Z,63.27
2022-09-11T08:23:36.861Z,64.20
2022-09-11T08:24:43.275Z,63.66
2022-09-11T08:25:46.246Z,64.20
2022-09-11T08:26:49.398Z,63.32
2022-09-11T08:27:53.334Z,64.26
2022-09-11T08:28:58.979Z,64.95
2022-09-11T08:30:01.830Z,64.38
2022-09-11T08:31:10.329Z,64.35
2022-09-11T08:32:13.884Z,65.51
2022-09-11T08:33:19.800Z,64.86
2022-09-11T08:34:22.653Z,65.08
2022-09-11T08:35:26.460Z,65.34
2022-09-11T08:36:29.932Z,65.32
2022-09-11T08:37:32.780Z,65.50
2022-09-11T08:38:36.698Z,64.19
2022-09-11T08:39:40.052Z,64.21
2022-09-11T08:40:43.311Z,63.12
2022-09-11T08:42:02.707Z,60.79
2022-09-11T08:43:09.104Z,59.91
2022-09-11T08:44:31.276Z,60.15
2022-09-11T08:45:36.287Z,59.40
2022-09-11T08:46:46.673Z,58.88
2022-09-11T08:47:52.385Z,59.86
2022-09-11T08:49:14.992Z,58.58
2022-09-11T08:50:28.071Z,57.31
2022-09-11T08:51:32.108Z,58.66
2022-09-11T08:52:37.010Z,58.52
2022-09-11T08:53:39.931Z,58.98
2022-09-11T08:54:43.873Z,58.77
2022-09-11T08:56:15.025Z,59.07
2022-09-11T08:57:33.665Z,58.75
2022-09-11T08:59:14.515Z,58.71
2022-09-11T09:00:29.172Z,57.70
2022-09-11T09:01:47.460Z,58.22
2022-09-11T09:03:15.009Z,59.12
2022-09-11T09:04:41.662Z,56.96
2022-09-11T09:06:21.816Z,57.62
2022-09-11T09:07:38.820Z,57.50
2022-09-11T09:08:59.694Z,56.84
2022-09-11T09:10:21.462Z,57.29
2022-09-11T09:11:29.083Z,57.29
2022-09-11T09:12:39.587Z,57.97
2022-09-11T09:14:02.118Z,56.98
2022-09-11T09:15:17.364Z,56.67
2022-09-11T09:16:45.677Z,57.42
2022-09-11T09:18:00.051Z,57.26
2022-09-11T09:19:10.728Z,57.13
2022-09-11T09:20:37.549Z,57.08
2022-09-11T09:21:48.851Z,58.31
2022-09-11T09:22:57.306Z,59.69
2022-09-11T09:24:05.209Z,58.03
2022-09-11T09:25:14.103Z,58.59
2022-09-11T09:26:19.398Z,59.09
2022-09-11T09:27:34.659Z,59.26
2022-09-11T09:28:47.004Z,59.10
2022-09-11T09:29:55.483Z,60.09
2022-09-11T09:31:06.225Z,59.37
2022-09-11T09:32:14.315Z,58.50
2022-09-11T09:33:20.712Z,58.96
2022-09-11T09:34:28.048Z,59.11
2022-09-11T09:35:40.531Z,58.50
2022-09-11T09:36:47.507Z,57.78
2022-09-11T09:37:50.711Z,57.71
2022-09-11T09:38:54.355Z,56.86
2022-09-11T09:39:57.629Z,56.61
2022-09-11T09:41:09.017Z,56.32
2022-09-11T09:42:26.465Z,57.16
2022-09-11T09:43:50.971Z,55.57
2022-09-11T09:45:14.736Z,55.56
2022-09-11T09:46:42.586Z,55.52
2022-09-11T09:47:48.179Z,54.12
2022-09-11T09:48:50.888Z,54.46
2022-09-11T09:49:56.381Z,55.41
2022-09-11T09:50:59.314Z,54.25
2022-09-11T09:52:13.919Z,53.46
2022-09-11T09:53:39.453Z,53.38
2022-09-11T09:54:43.376Z,52.29
2022-09-11T09:55:47.818Z,52.04
2022-09-11T09:56:59.323Z,51.48
2022-09-11T09:58:02.835Z,49.61
2022-09-11T09:59:11.519Z,49.13
2022-09-11T10:00:18.346Z,49.51
2022-09-11T10:01:54.302Z,49.13
2022-09-11T10:03:00.449Z,49.34
2022-09-11T10:04:16.344Z,49.86
2022-09-11T10:05:28.402Z,50.79
2022-09-11T10:06:31.251Z,52.12
2022-09-11T10:07:34.049Z,52.27
2022-09-11T10:08:38.069Z,52.86
2022-09-11T10:09:51.152Z,53.99
2022-09-11T10:11:00.561Z,52.83
2022-09-11T10:12:07.598Z,53.50
2022-09-11T10:13:25.211Z,52.04
2022-09-11T10:14:50.525Z,53.14
2022-09-11T10:15:55.974Z,52.82
2022-09-11T10:17:02.032Z,52.51
2022-09-11T10:18:32.732Z,53.13
2022-09-11T10:19:41.885Z,52.53
2022-09-11T10:20:44.816Z,53.01
2022-09-11T10:21:47.646Z,54.22
2022-09-11T10:22:52.309Z,53.57
2022-09-11T10:24:01.093Z,54.56
2022-09-11T10:25:21.910Z,54.10
2022-09-11T10:26:35.099Z,54.63
2022-09-11T10:27:47.373Z,55.70
2022-09-11T10:28:50.959Z,57.93
2022-09-11T10:29:54.711Z,57.19
2022-09-11T10:31:05.356Z,56.97
2022-09-11T10:32:16.428Z,57.62
2022-09-11T10:33:27.175Z,58.59
2022-09-11T10:34:48.921Z,58.76
2022-09-11T10:35:55.515Z,58.97
2022-09-11T10:37:23.811Z,59.83
2022-09-11T10:38:45.187Z,58.98
2022-09-11T10:39:53.187Z,59.25
2022-09-11T10:41:29.187Z,59.70
2022-09-11T10:42:35.425Z,60.22
2022-09-11T10:44:01.850Z,60.83
2022-09-11T10:45:17.134Z,60.09
2022-09-11T10:46:26.107Z,59.29
2022-09-11T10:47:30.087Z,58.37
2022-09-11T10:48:42.760Z,59.09
2022-09-11T10:49:47.459Z,57.63
2022-09-11T10:51:05.687Z,56.08
2022-09-11T10:52:08.472Z,56.20
2022-09-11T10:53:20.404Z,55.35
2022-09-11T10:54:46.040Z,56.88
2022-09-11T10:56:06.231Z,56.62
2022-09-11T10:57:48.474Z,55.57
2022-09-11T10:58:57.789Z,55.32
2022-09-11T11:00:28.150Z,52.95
2022-09-11T11:01:34.748Z,52.79
2022-09-11T11:02:45.840Z,52.22
2022-09-11T11:03:49.034Z,52.50
2022-09-11T11:04:52.517Z,51.07
2022-09-11T11:06:39.378Z,50.87
2022-09-11T11:08:08.469Z,52.61
2022-09-11T11:09:47.643Z,52.44
2022-09-11T11:11:04.121Z,52.85
2022-09-11T11:12:33.209Z,52.82
2022-09-11T11:13:51.874Z,54.20
2022-09-11T11:15:06.944Z,54.59
2022-09-11T11:16:15.580Z,54.62
2022-09-11T11:17:33.556Z,56.08
2022-09-11T11:18:58.386Z,56.90
2022-09-11T11:20:16.400Z,56.16
2022-09-11T11:21:43.498Z,55.99
2022-09-11T11:23:29.378Z,56.10
2022-09-11T11:24:55.853Z,55.70
2022-09-11T11:26:14.044Z,55.80
2022-09-11T11:27:19.878Z,56.28
2022-09-11T11:28:56.363Z,56.62
2022-09-11T11:30:02.718Z,56.64
2022-09-11T11:31:09.798Z,57.16
2022-09-11T11:32:37.018Z,57.07
2022-09-11T11:34:24.072Z,58.14
2022-09-11T11:35:46.153Z,58.32
2022-09-11T11:37:00.656Z,57.66
2022-09-11T11:38:14.826Z,57.61
2022-09-11T11:39:36.660Z,56.53
2022-09-11T11:40:43.319Z,57.77
2022-09-11T11:41:56.327Z,56.67
2022-09-11T11:43:10.322Z,56.17
2022-09-11T11:44:18.958Z,55.11
2022-09-11T11:45:27.535Z,53.80
2022-09-11T11:46:38.849Z,53.82
2022-09-11T11:47:44.796Z,53.34
2022-09-11T11:48:54.132Z,52.37
2022-09-11T11:50:10.726Z,50.85
2022-09-11T11:51:25.890Z,49.88
2022-09-11T11:52:31.504Z,50.80
2022-09-11T11:54:07.328Z,49.88
2022-09-11T11:55:27.250Z,49.59
2022-09-11T11:56:49.621Z,49.30
2022-09-11T11:57:57.841Z,49.31
2022-09-11T11:59:12.967Z,50.98
2022-09-11T12:00:19.089Z,50.64
2022-09-11T12:01:38.723Z,51.09
2022-09-11T12:03:08.398Z,51.31
2022-09-11T12:04:20.285Z,52.01
2022-09-11T12:05:30.511Z,51.88
2022-09-11T12:06:33.300Z,52.21
2022-09-11T12:07:39.072Z,52.72
2022-09-11T12:08:46.565Z,52.31
2022-09-11T12:09:55.467Z,52.99
2022-09-11T12:11:07.787Z,53.52
2022-09-11T12:12:12.997Z,54.17
2022-09-11T12:13:18.417Z,54.65
2022-09-11T12:14:29.996Z,56.75
2022-09-11T12:15:34.879Z,57.12
2022-09-11T12:16:39.012Z,57.79
2022-09-11T12:17:43.576Z,56.83
2022-09-11T12:19:20.014Z,56.70
2022-09-11T12:20:35.331Z,56.60
2022-09-11T12:22:02.605Z,57.07
2022-09-11T12:23:10.709Z,58.78
2022-09-11T12:24:17.882Z,59.97
2022-09-11T12:25:23.475Z,61.08
2022-09-11T12:26:28.156Z,62.65
2022-09-11T12:27:33.959Z,62.24
2022-09-11T12:28:38.188Z,62.98
2022-09-11T12:29:43.677Z,65.58
2022-09-11T12:31:01.872Z,64.25
2022-09-11T12:32:09.493Z,63.07
2022-09-11T12:33:40.874Z,62.83
2022-09-11T12:34:43.595Z,64.25
2022-09-11T12:35:53.907Z,63.45
2022-09-11T12:37:04.993Z,64.11
2022-09-11T12:38:09.134Z,63.54
2022-09-11T12:39:25.305Z,62.44
2022-09-11T12:40:32.912Z,60.73
2022-09-11T12:41:36.357Z,60.68
2022-09-11T12:42:39.089Z,59.60
2022-09-11T12:43:42.781Z,59.42
2022-09-11T12:44:48.179Z,58.35
2022-09-11T12:45:51.940Z,57.09
2022-09-11T12:46:55.617Z,56.34
2022-09-11T12:48:20.454Z,56.64
2022-09-11T12:49:25.237Z,57.47
2022-09-11T12:50:29.081Z,57.25
2022-09-11T12:51:35.506Z,58.31
2022-09-11T12:52:48.126Z,59.99
2022-09-11T12:53:54.140Z,60.20
2022-09-11T12:55:03.277Z,59.68
2022-09-11T12:56:16.627Z,58.71
2022-09-11T12:57:29.340Z,58.39
2022-09-11T12:58:34.684Z,58.71
2022-09-11T12:59:41.582Z,59.92
2022-09-11T13:00:48.233Z,59.18
2022-09-11T13:01:52.488Z,58.87
2022-09-11T13:02:58.297Z,58.54
2022-09-11T13:04:19.462Z,57.71
2022-09-11T13:05:38.164Z,59.52
2022-09-11T13:07:07.663Z,59.44
2022-09-11T13:08:22.555Z,59.52
2022-09-11T13:09:37.447Z,59.88
2022-09-11T13:10:40.382Z,59.11
2022-09-11T13:11:51.947Z,58.43
2022-09-11T13:12:56.074Z,57.89
2022-09-11T13:14:00.224Z,58.12
2022-09-11T13:15:03.098Z,58.52
2022-09-11T13:16:26.689Z,58.38
2022-09-11T13:17:47.044Z,59.75
2022-09-11T13:18:49.897Z,57.99
2022-09-11T13:19:57.567Z,58.78
2022-09-11T13:21:06.546Z,55.68
2022-09-11T13:22:25.314Z,56.14
2022-09-11T13:23:29.078Z,56.80
2022-09-11T13:24:34.618Z,55.44
2022-09-11T13:25:41.227Z,55.44
2022-09-11T13:26:45.793Z,56.13
2022-09-11T13:27:54.450Z,55.27
2022-09-11T13:29:00.037Z,55.86
2022-09-11T13:30:02.922Z,55.42
2022-09-11T13:31:07.158Z,54.79
2022-09-11T13:32:18.595Z,53.74
2022-09-11T13:33:30.311Z,53.37
2022-09-11T13:34:36.792Z,52.35
2022-09-11T13:35:45.348Z,52.30
2022-09-11T13:36:55.906Z,51.57
2022-09-11T13:38:10.400Z,52.00
2022-09-11T13:39:16.037Z,52.37
2022-09-11T13:40:49.336Z,52.16
2022-09-11T13:41:59.573Z,52.68
2022-09-11T13:43:04.187Z,53.80
2022-09-11T13:44:32.860Z,53.22
2022-09-11T13:45:35.684Z,52.67
2022-09-11T13:46:51.455Z,51.82
2022-09-11T13:47:55.190Z,51.95
2022-09-11T13:49:18.313Z,52.18
2022-09-11T13:50:23.632Z,50.38
2022-09-11T13:51:32.128Z,50.92
2022-09-11T13:52:36.661Z,48.94
2022-09-11T13:53:40.224Z,47.72
2022-09-11T13:54:52.171Z,49.37
2022-09-11T13:55:55.128Z,47.90
2022-09-11T13:56:58.307Z,47.87
2022-09-11T13:58:02.860Z,46.65
2022-09-11T13:59:43.226Z,47.00
2022-09-11T14:00:48.382Z,47.39
2022-09-11T14:01:55.948Z,47.65
2022-09-11T14:03:00.537Z,48.00
2022-09-11T14:04:04.916Z,46.35
2022-09-11T14:05:22.393Z,45.31
2022-09-11T14:06:25.466Z,46.36
2022-09-11T14:07:28.608Z,47.05
2022-09-11T14:08:35.426Z,47.91
2022-09-11T14:09:38.292Z,47.23
2022-09-11T14:10:43.953Z,48.49
2022-09-11T14:11:47.296Z,48.15
2022-09-11T14:13:04.451Z,48.07
2022-09-11T14:14:11.982Z,47.68
2022-09-11T14:15:29.478Z,48.19
2022-09-11T14:16:45.302Z,48.40
2022-09-11T14:17:48.479Z,48.23
2022-09-11T14:19:00.395Z,48.70
2022-09-11T14:20:07.350Z,48.70
2022-09-11T14:21:19.687Z,48.15
2022-09-11T14:22:31.255Z,48.73
2022-09-11T14:23:41.742Z,49.67
2022-09-11T14:24:57.712Z,49.17
2022-09-11T14:26:11.378Z,48.67
2022-09-11T14:27:35.189Z,49.25
2022-09-11T14:29:04.101Z,49.57
2022-09-11T14:30:37.167Z,48.89
2022-09-11T14:31:44.094Z,48.70
2022-09-11T14:32:47.411Z,49.56
2022-09-11T14:34:02.799Z,48.06
2022-09-11T14:35:08.730Z,48.63
2022-09-11T14:36:20.100Z,49.86
2022-09-11T14:37:25.729Z,48.63
2022-09-11T14:38:28.505Z,48.81
2022-09-11T14:39:45.482Z,48.34
2022-09-11T14:40:59.334Z,48.74
2022-09-11T14:42:05.419Z,49.89
2022-09-11T14:43:10.293Z,50.32
2022-09-11T14:44:17.723Z,50.58
2022-09-11T14:45:24.102Z,50.69
2022-09-11T14:46:26.850Z,51.05